sensor_id;sensor_type;location;lat;lon;timestamp;P1;durP1;ratioP1;P2;durP2;ratioP2
80392;SDS011;69719;45.544;10.218;2023-10-09T00:00:04;20.40;;;6.20;;
80392;SDS011;69719;45.544;10.218;2023-10-09T00:02:51;26.30;;;5.85;;
80392;SDS011;69719;45.544;10.218;2023-10-09T00:05:16;20.00;;;4.80;;
80392;SDS011;69719;45.544;10.218;2023-10-09T00:07:52;17.85;;;5.07;;
80392;SDS011;69719;45.544;10.218;2023-10-09T00:10:21;23.02;;;5.53;;
80392;SDS011;69719;45.544;10.218;2023-10-09T00:12:47;18.20;;;4.72;;
80392;SDS011;69719;45.544;10.218;2023-10-09T00:15:14;18.60;;;5.35;;
80392;SDS011;69719;45.544;10.218;2023-10-09T00:17:43;18.35;;;4.70;;
80392;SDS011;69719;45.544;10.218;2023-10-09T00:20:12;20.88;;;5.47;;
80392;SDS011;69719;45.544;10.218;2023-10-09T00:22:45;15.13;;;4.55;;
80392;SDS011;69719;45.544;10.218;2023-10-09T00:25:11;23.55;;;5.75;;
80392;SDS011;69719;45.544;10.218;2023-10-09T00:27:41;15.10;;;4.95;;
80392;SDS011;69719;45.544;10.218;2023-10-09T00:30:11;21.70;;;5.88;;
80392;SDS011;69719;45.544;10.218;2023-10-09T00:32:43;25.50;;;5.03;;
80392;SDS011;69719;45.544;10.218;2023-10-09T00:35:29;14.32;;;4.13;;
80392;SDS011;69719;45.544;10.218;2023-10-09T00:38:09;16.35;;;5.10;;
80392;SDS011;69719;45.544;10.218;2023-10-09T00:40:47;21.65;;;4.82;;
80392;SDS011;69719;45.544;10.218;2023-10-09T00:43:21;15.93;;;4.47;;
80392;SDS011;69719;45.544;10.218;2023-10-09T00:45:53;16.30;;;4.95;;
80392;SDS011;69719;45.544;10.218;2023-10-09T00:48:19;16.00;;;4.93;;
80392;SDS011;69719;45.544;10.218;2023-10-09T00:50:57;17.83;;;5.20;;
80392;SDS011;69719;45.544;10.218;2023-10-09T00:53:25;15.45;;;5.30;;
80392;SDS011;69719;45.544;10.218;2023-10-09T00:55:58;16.37;;;4.40;;
80392;SDS011;69719;45.544;10.218;2023-10-09T00:58:30;18.30;;;4.53;;
80392;SDS011;69719;45.544;10.218;2023-10-09T01:01:00;18.52;;;4.63;;
80392;SDS011;69719;45.544;10.218;2023-10-09T01:03:29;24.45;;;6.07;;
80392;SDS011;69719;45.544;10.218;2023-10-09T01:06:00;20.40;;;5.18;;
80392;SDS011;69719;45.544;10.218;2023-10-09T01:08:38;17.33;;;4.60;;
80392;SDS011;69719;45.544;10.218;2023-10-09T01:11:07;16.63;;;4.88;;
80392;SDS011;69719;45.544;10.218;2023-10-09T01:13:41;17.25;;;4.32;;
80392;SDS011;69719;45.544;10.218;2023-10-09T01:16:10;18.67;;;5.13;;
80392;SDS011;69719;45.544;10.218;2023-10-09T01:18:40;17.45;;;5.22;;
80392;SDS011;69719;45.544;10.218;2023-10-09T01:21:06;23.55;;;4.55;;
80392;SDS011;69719;45.544;10.218;2023-10-09T01:23:32;16.35;;;4.97;;
80392;SDS011;69719;45.544;10.218;2023-10-09T01:25:58;18.60;;;4.72;;
80392;SDS011;69719;45.544;10.218;2023-10-09T01:28:23;20.45;;;5.20;;
80392;SDS011;69719;45.544;10.218;2023-10-09T01:30:50;23.48;;;4.35;;
80392;SDS011;69719;45.544;10.218;2023-10-09T01:33:16;18.75;;;4.82;;
80392;SDS011;69719;45.544;10.218;2023-10-09T01:35:52;21.83;;;5.53;;
80392;SDS011;69719;45.544;10.218;2023-10-09T01:38:25;22.52;;;4.85;;
80392;SDS011;69719;45.544;10.218;2023-10-09T01:41:05;17.20;;;5.03;;
80392;SDS011;69719;45.544;10.218;2023-10-09T01:43:33;18.13;;;5.18;;
80392;SDS011;69719;45.544;10.218;2023-10-09T01:45:59;25.15;;;5.10;;
80392;SDS011;69719;45.544;10.218;2023-10-09T01:48:30;21.58;;;5.50;;
80392;SDS011;69719;45.544;10.218;2023-10-09T01:51:00;22.42;;;5.65;;
80392;SDS011;69719;45.544;10.218;2023-10-09T01:53:27;25.23;;;5.88;;
80392;SDS011;69719;45.544;10.218;2023-10-09T01:55:55;13.40;;;4.35;;
80392;SDS011;69719;45.544;10.218;2023-10-09T01:58:20;23.10;;;4.45;;
80392;SDS011;69719;45.544;10.218;2023-10-09T02:00:46;18.67;;;4.72;;
80392;SDS011;69719;45.544;10.218;2023-10-09T02:05:48;21.35;;;5.47;;
80392;SDS011;69719;45.544;10.218;2023-10-09T02:08:42;15.27;;;4.60;;
80392;SDS011;69719;45.544;10.218;2023-10-09T02:11:14;20.88;;;4.82;;
80392;SDS011;69719;45.544;10.218;2023-10-09T02:13:49;16.80;;;4.13;;
80392;SDS011;69719;45.544;10.218;2023-10-09T02:16:20;22.77;;;5.90;;
80392;SDS011;69719;45.544;10.218;2023-10-09T02:18:53;19.40;;;4.95;;
80392;SDS011;69719;45.544;10.218;2023-10-09T02:21:21;16.30;;;4.15;;
80392;SDS011;69719;45.544;10.218;2023-10-09T02:24:05;16.55;;;4.43;;
80392;SDS011;69719;45.544;10.218;2023-10-09T02:26:32;17.60;;;4.68;;
80392;SDS011;69719;45.544;10.218;2023-10-09T02:29:04;23.25;;;5.10;;
80392;SDS011;69719;45.544;10.218;2023-10-09T02:31:40;17.77;;;4.55;;
80392;SDS011;69719;45.544;10.218;2023-10-09T02:34:06;17.77;;;4.65;;
80392;SDS011;69719;45.544;10.218;2023-10-09T02:36:40;18.65;;;4.63;;
80392;SDS011;69719;45.544;10.218;2023-10-09T02:39:14;19.60;;;4.82;;
80392;SDS011;69719;45.544;10.218;2023-10-09T02:41:50;20.40;;;5.03;;
80392;SDS011;69719;45.544;10.218;2023-10-09T02:44:18;15.55;;;4.70;;
80392;SDS011;69719;45.544;10.218;2023-10-09T02:46:49;22.88;;;6.07;;
80392;SDS011;69719;45.544;10.218;2023-10-09T02:49:15;23.50;;;6.10;;
80392;SDS011;69719;45.544;10.218;2023-10-09T02:51:41;18.60;;;4.80;;
80392;SDS011;69719;45.544;10.218;2023-10-09T02:54:07;17.70;;;4.47;;
80392;SDS011;69719;45.544;10.218;2023-10-09T02:56:53;23.42;;;5.85;;
80392;SDS011;69719;45.544;10.218;2023-10-09T02:59:31;18.67;;;5.00;;
80392;SDS011;69719;45.544;10.218;2023-10-09T03:01:56;18.67;;;4.85;;
80392;SDS011;69719;45.544;10.218;2023-10-09T03:04:25;18.17;;;5.32;;
80392;SDS011;69719;45.544;10.218;2023-10-09T03:06:59;18.98;;;4.90;;
80392;SDS011;69719;45.544;10.218;2023-10-09T03:09:25;18.33;;;4.72;;
80392;SDS011;69719;45.544;10.218;2023-10-09T03:12:01;19.40;;;5.30;;
80392;SDS011;69719;45.544;10.218;2023-10-09T03:14:32;21.67;;;4.65;;
80392;SDS011;69719;45.544;10.218;2023-10-09T03:17:06;48.97;;;9.07;;
80392;SDS011;69719;45.544;10.218;2023-10-09T03:19:36;18.25;;;4.07;;
80392;SDS011;69719;45.544;10.218;2023-10-09T03:22:08;16.98;;;4.72;;
80392;SDS011;69719;45.544;10.218;2023-10-09T03:24:35;21.27;;;5.45;;
80392;SDS011;69719;45.544;10.218;2023-10-09T03:27:02;29.85;;;7.60;;
80392;SDS011;69719;45.544;10.218;2023-10-09T03:29:28;26.25;;;7.28;;
80392;SDS011;69719;45.544;10.218;2023-10-09T03:31:53;21.10;;;5.82;;
80392;SDS011;69719;45.544;10.218;2023-10-09T03:34:20;19.50;;;4.85;;
80392;SDS011;69719;45.544;10.218;2023-10-09T03:36:46;27.95;;;5.43;;
80392;SDS011;69719;45.544;10.218;2023-10-09T03:39:13;36.92;;;7.88;;
80392;SDS011;69719;45.544;10.218;2023-10-09T03:41:57;24.25;;;5.20;;
80392;SDS011;69719;45.544;10.218;2023-10-09T03:44:30;39.90;;;7.47;;
80392;SDS011;69719;45.544;10.218;2023-10-09T03:46:58;22.45;;;5.35;;
80392;SDS011;69719;45.544;10.218;2023-10-09T03:49:24;17.02;;;4.43;;
80392;SDS011;69719;45.544;10.218;2023-10-09T03:51:51;17.00;;;5.20;;
80392;SDS011;69719;45.544;10.218;2023-10-09T03:54:17;25.25;;;5.07;;
80392;SDS011;69719;45.544;10.218;2023-10-09T03:56:48;20.23;;;4.95;;
80392;SDS011;69719;45.544;10.218;2023-10-09T03:59:20;32.53;;;5.57;;
80392;SDS011;69719;45.544;10.218;2023-10-09T04:01:47;23.10;;;4.80;;
80392;SDS011;69719;45.544;10.218;2023-10-09T04:04:18;14.50;;;4.18;;
80392;SDS011;69719;45.544;10.218;2023-10-09T04:06:48;21.17;;;5.15;;
80392;SDS011;69719;45.544;10.218;2023-10-09T04:09:14;16.60;;;4.45;;
80392;SDS011;69719;45.544;10.218;2023-10-09T04:11:46;16.00;;;4.18;;
80392;SDS011;69719;45.544;10.218;2023-10-09T04:14:12;18.60;;;4.63;;
80392;SDS011;69719;45.544;10.218;2023-10-09T04:16:49;31.38;;;5.68;;
80392;SDS011;69719;45.544;10.218;2023-10-09T04:19:17;17.73;;;4.63;;
80392;SDS011;69719;45.544;10.218;2023-10-09T04:21:49;25.67;;;6.03;;
80392;SDS011;69719;45.544;10.218;2023-10-09T04:24:15;20.10;;;4.50;;
80392;SDS011;69719;45.544;10.218;2023-10-09T04:26:41;23.13;;;4.55;;
80392;SDS011;69719;45.544;10.218;2023-10-09T04:29:11;14.52;;;4.88;;
80392;SDS011;69719;45.544;10.218;2023-10-09T04:31:51;23.35;;;5.00;;
80392;SDS011;69719;45.544;10.218;2023-10-09T04:34:24;19.17;;;4.90;;
80392;SDS011;69719;45.544;10.218;2023-10-09T04:36:54;21.48;;;4.93;;
80392;SDS011;69719;45.544;10.218;2023-10-09T04:39:42;13.93;;;4.07;;
80392;SDS011;69719;45.544;10.218;2023-10-09T04:42:15;18.50;;;4.95;;
80392;SDS011;69719;45.544;10.218;2023-10-09T04:44:45;22.70;;;5.50;;
80392;SDS011;69719;45.544;10.218;2023-10-09T04:47:32;13.73;;;4.00;;
80392;SDS011;69719;45.544;10.218;2023-10-09T04:52:32;20.38;;;4.15;;
80392;SDS011;69719;45.544;10.218;2023-10-09T04:54:58;24.73;;;5.15;;
80392;SDS011;69719;45.544;10.218;2023-10-09T04:57:33;19.00;;;4.40;;
80392;SDS011;69719;45.544;10.218;2023-10-09T05:02:53;19.25;;;4.25;;
80392;SDS011;69719;45.544;10.218;2023-10-09T05:05:28;20.50;;;4.72;;
80392;SDS011;69719;45.544;10.218;2023-10-09T05:08:13;21.15;;;4.15;;
80392;SDS011;69719;45.544;10.218;2023-10-09T05:10:53;18.67;;;5.13;;
80392;SDS011;69719;45.544;10.218;2023-10-09T05:13:32;18.55;;;5.40;;
80392;SDS011;69719;45.544;10.218;2023-10-09T05:18:44;22.30;;;5.40;;
80392;SDS011;69719;45.544;10.218;2023-10-09T05:24:11;15.00;;;4.55;;
80392;SDS011;69719;45.544;10.218;2023-10-09T05:26:37;19.27;;;4.13;;
80392;SDS011;69719;45.544;10.218;2023-10-09T05:31:53;23.23;;;5.03;;
80392;SDS011;69719;45.544;10.218;2023-10-09T05:34:28;21.20;;;5.40;;
80392;SDS011;69719;45.544;10.218;2023-10-09T05:37:06;25.45;;;6.05;;
80392;SDS011;69719;45.544;10.218;2023-10-09T05:39:53;28.45;;;5.90;;
80392;SDS011;69719;45.544;10.218;2023-10-09T05:42:28;17.75;;;4.72;;
80392;SDS011;69719;45.544;10.218;2023-10-09T05:45:10;19.20;;;4.63;;
80392;SDS011;69719;45.544;10.218;2023-10-09T05:47:56;27.05;;;6.00;;
80392;SDS011;69719;45.544;10.218;2023-10-09T05:50:23;21.40;;;5.28;;
80392;SDS011;69719;45.544;10.218;2023-10-09T05:52:50;20.13;;;5.03;;
80392;SDS011;69719;45.544;10.218;2023-10-09T05:57:54;19.50;;;5.32;;
80392;SDS011;69719;45.544;10.218;2023-10-09T06:00:27;20.15;;;4.60;;
80392;SDS011;69719;45.544;10.218;2023-10-09T06:03:11;26.27;;;6.18;;
80392;SDS011;69719;45.544;10.218;2023-10-09T06:05:46;17.08;;;5.03;;
80392;SDS011;69719;45.544;10.218;2023-10-09T06:08:19;31.02;;;5.88;;
80392;SDS011;69719;45.544;10.218;2023-10-09T06:11:04;28.52;;;5.95;;
80392;SDS011;69719;45.544;10.218;2023-10-09T06:13:53;29.35;;;6.50;;
80392;SDS011;69719;45.544;10.218;2023-10-09T06:16:34;23.77;;;5.53;;
80392;SDS011;69719;45.544;10.218;2023-10-09T06:19:06;20.88;;;5.07;;
80392;SDS011;69719;45.544;10.218;2023-10-09T06:21:51;20.27;;;4.60;;
80392;SDS011;69719;45.544;10.218;2023-10-09T06:24:30;22.10;;;5.28;;
80392;SDS011;69719;45.544;10.218;2023-10-09T06:27:06;22.30;;;5.18;;
80392;SDS011;69719;45.544;10.218;2023-10-09T06:29:32;18.98;;;5.25;;
80392;SDS011;69719;45.544;10.218;2023-10-09T06:32:02;26.20;;;5.85;;
80392;SDS011;69719;45.544;10.218;2023-10-09T06:35:01;29.13;;;5.60;;
80392;SDS011;69719;45.544;10.218;2023-10-09T06:37:55;21.27;;;5.57;;
80392;SDS011;69719;45.544;10.218;2023-10-09T06:40:28;22.15;;;5.63;;
80392;SDS011;69719;45.544;10.218;2023-10-09T06:43:22;23.02;;;5.82;;
80392;SDS011;69719;45.544;10.218;2023-10-09T06:45:49;21.73;;;5.57;;
80392;SDS011;69719;45.544;10.218;2023-10-09T06:48:44;24.30;;;6.85;;
80392;SDS011;69719;45.544;10.218;2023-10-09T06:51:20;27.85;;;6.07;;
80392;SDS011;69719;45.544;10.218;2023-10-09T06:53:56;33.55;;;6.05;;
80392;SDS011;69719;45.544;10.218;2023-10-09T06:56:22;18.75;;;5.15;;
80392;SDS011;69719;45.544;10.218;2023-10-09T06:58:55;22.02;;;6.22;;
80392;SDS011;69719;45.544;10.218;2023-10-09T07:01:42;18.77;;;4.93;;
80392;SDS011;69719;45.544;10.218;2023-10-09T07:04:08;18.85;;;5.32;;
80392;SDS011;69719;45.544;10.218;2023-10-09T07:06:50;21.27;;;5.65;;
80392;SDS011;69719;45.544;10.218;2023-10-09T07:09:18;18.50;;;5.32;;
80392;SDS011;69719;45.544;10.218;2023-10-09T07:11:45;31.38;;;6.35;;
80392;SDS011;69719;45.544;10.218;2023-10-09T07:14:18;29.25;;;6.00;;
80392;SDS011;69719;45.544;10.218;2023-10-09T07:16:58;20.63;;;6.18;;
80392;SDS011;69719;45.544;10.218;2023-10-09T07:19:29;25.88;;;5.57;;
80392;SDS011;69719;45.544;10.218;2023-10-09T07:22:04;22.48;;;6.05;;
80392;SDS011;69719;45.544;10.218;2023-10-09T07:27:54;23.70;;;5.75;;
80392;SDS011;69719;45.544;10.218;2023-10-09T07:30:25;24.70;;;6.40;;
80392;SDS011;69719;45.544;10.218;2023-10-09T07:35:46;22.95;;;5.13;;
80392;SDS011;69719;45.544;10.218;2023-10-09T07:41:04;26.00;;;5.57;;
80392;SDS011;69719;45.544;10.218;2023-10-09T07:43:35;30.25;;;6.35;;
80392;SDS011;69719;45.544;10.218;2023-10-09T07:46:13;31.48;;;6.78;;
80392;SDS011;69719;45.544;10.218;2023-10-09T07:48:58;23.92;;;5.80;;
80392;SDS011;69719;45.544;10.218;2023-10-09T07:51:49;27.58;;;5.10;;
80392;SDS011;69719;45.544;10.218;2023-10-09T07:54:17;21.67;;;5.43;;
80392;SDS011;69719;45.544;10.218;2023-10-09T07:56:57;20.85;;;6.28;;
80392;SDS011;69719;45.544;10.218;2023-10-09T07:59:34;29.35;;;7.00;;
80392;SDS011;69719;45.544;10.218;2023-10-09T08:02:07;31.27;;;8.07;;
80392;SDS011;69719;45.544;10.218;2023-10-09T08:04:38;29.98;;;7.32;;
80392;SDS011;69719;45.544;10.218;2023-10-09T08:07:13;40.03;;;10.20;;
80392;SDS011;69719;45.544;10.218;2023-10-09T08:09:54;40.42;;;16.33;;
80392;SDS011;69719;45.544;10.218;2023-10-09T08:12:38;33.67;;;10.60;;
80392;SDS011;69719;45.544;10.218;2023-10-09T08:15:13;25.90;;;7.25;;
80392;SDS011;69719;45.544;10.218;2023-10-09T08:17:44;33.42;;;7.65;;
80392;SDS011;69719;45.544;10.218;2023-10-09T08:22:42;24.92;;;8.02;;
80392;SDS011;69719;45.544;10.218;2023-10-09T08:25:08;35.33;;;7.65;;
80392;SDS011;69719;45.544;10.218;2023-10-09T08:27:51;30.93;;;7.17;;
80392;SDS011;69719;45.544;10.218;2023-10-09T08:30:22;28.83;;;7.45;;
80392;SDS011;69719;45.544;10.218;2023-10-09T08:32:51;26.85;;;6.97;;
80392;SDS011;69719;45.544;10.218;2023-10-09T08:37:59;29.95;;;7.70;;
80392;SDS011;69719;45.544;10.218;2023-10-09T08:40:33;41.33;;;8.55;;
80392;SDS011;69719;45.544;10.218;2023-10-09T08:43:15;31.42;;;7.32;;
80392;SDS011;69719;45.544;10.218;2023-10-09T08:45:55;30.33;;;7.25;;
80392;SDS011;69719;45.544;10.218;2023-10-09T08:48:27;44.97;;;9.18;;
80392;SDS011;69719;45.544;10.218;2023-10-09T08:50:55;34.47;;;9.15;;
80392;SDS011;69719;45.544;10.218;2023-10-09T08:53:21;29.15;;;6.97;;
80392;SDS011;69719;45.544;10.218;2023-10-09T08:55:49;39.85;;;7.90;;
80392;SDS011;69719;45.544;10.218;2023-10-09T08:58:17;34.33;;;7.78;;
80392;SDS011;69719;45.544;10.218;2023-10-09T09:00:50;31.45;;;9.00;;
80392;SDS011;69719;45.544;10.218;2023-10-09T09:03:17;41.28;;;9.38;;
80392;SDS011;69719;45.544;10.218;2023-10-09T09:05:48;35.47;;;7.82;;
80392;SDS011;69719;45.544;10.218;2023-10-09T09:08:22;36.08;;;6.28;;
80392;SDS011;69719;45.544;10.218;2023-10-09T09:10:59;30.90;;;7.03;;
80392;SDS011;69719;45.544;10.218;2023-10-09T09:13:37;27.13;;;8.07;;
80392;SDS011;69719;45.544;10.218;2023-10-09T09:16:13;38.90;;;7.07;;
80392;SDS011;69719;45.544;10.218;2023-10-09T09:18:55;32.92;;;8.52;;
80392;SDS011;69719;45.544;10.218;2023-10-09T09:24:13;32.90;;;6.22;;
80392;SDS011;69719;45.544;10.218;2023-10-09T09:26:46;27.15;;;6.45;;
80392;SDS011;69719;45.544;10.218;2023-10-09T09:29:14;28.90;;;7.70;;
80392;SDS011;69719;45.544;10.218;2023-10-09T09:31:56;30.60;;;7.55;;
80392;SDS011;69719;45.544;10.218;2023-10-09T09:34:39;35.28;;;6.25;;
80392;SDS011;69719;45.544;10.218;2023-10-09T09:37:10;33.33;;;8.15;;
80392;SDS011;69719;45.544;10.218;2023-10-09T09:39:39;29.30;;;8.18;;
80392;SDS011;69719;45.544;10.218;2023-10-09T09:42:08;28.88;;;6.88;;
80392;SDS011;69719;45.544;10.218;2023-10-09T09:44:38;31.58;;;7.00;;
80392;SDS011;69719;45.544;10.218;2023-10-09T09:47:13;27.40;;;7.47;;
80392;SDS011;69719;45.544;10.218;2023-10-09T09:49:48;25.20;;;5.95;;
80392;SDS011;69719;45.544;10.218;2023-10-09T09:52:18;26.02;;;6.30;;
80392;SDS011;69719;45.544;10.218;2023-10-09T09:54:44;28.27;;;7.45;;
80392;SDS011;69719;45.544;10.218;2023-10-09T09:57:11;25.10;;;6.60;;
80392;SDS011;69719;45.544;10.218;2023-10-09T09:59:40;37.17;;;9.02;;
80392;SDS011;69719;45.544;10.218;2023-10-09T10:02:14;35.72;;;7.50;;
80392;SDS011;69719;45.544;10.218;2023-10-09T10:04:45;31.88;;;8.98;;
80392;SDS011;69719;45.544;10.218;2023-10-09T10:07:15;39.33;;;9.10;;
80392;SDS011;69719;45.544;10.218;2023-10-09T10:09:42;30.15;;;7.03;;
80392;SDS011;69719;45.544;10.218;2023-10-09T10:12:10;50.20;;;9.73;;
80392;SDS011;69719;45.544;10.218;2023-10-09T10:18:06;36.38;;;8.32;;
80392;SDS011;69719;45.544;10.218;2023-10-09T10:20:32;42.00;;;9.65;;
80392;SDS011;69719;45.544;10.218;2023-10-09T10:23:17;30.58;;;8.80;;
80392;SDS011;69719;45.544;10.218;2023-10-09T10:25:44;57.42;;;11.43;;
80392;SDS011;69719;45.544;10.218;2023-10-09T10:31:03;39.03;;;9.05;;
80392;SDS011;69719;45.544;10.218;2023-10-09T10:36:21;36.55;;;8.55;;
80392;SDS011;69719;45.544;10.218;2023-10-09T10:39:10;44.97;;;8.82;;
80392;SDS011;69719;45.544;10.218;2023-10-09T10:41:36;37.58;;;8.85;;
80392;SDS011;69719;45.544;10.218;2023-10-09T10:44:23;32.35;;;7.80;;
80392;SDS011;69719;45.544;10.218;2023-10-09T10:47:05;30.98;;;7.68;;
80392;SDS011;69719;45.544;10.218;2023-10-09T10:49:47;29.67;;;7.13;;
80392;SDS011;69719;45.544;10.218;2023-10-09T10:52:24;23.48;;;6.78;;
80392;SDS011;69719;45.544;10.218;2023-10-09T10:55:15;33.17;;;8.02;;
80392;SDS011;69719;45.544;10.218;2023-10-09T10:57:57;31.85;;;7.97;;
80392;SDS011;69719;45.544;10.218;2023-10-09T11:00:38;36.65;;;8.27;;
80392;SDS011;69719;45.544;10.218;2023-10-09T11:03:22;49.63;;;9.32;;
80392;SDS011;69719;45.544;10.218;2023-10-09T11:05:54;29.13;;;6.40;;
80392;SDS011;69719;45.544;10.218;2023-10-09T11:11:15;34.42;;;6.82;;
80392;SDS011;69719;45.544;10.218;2023-10-09T11:13:41;27.00;;;6.95;;
80392;SDS011;69719;45.544;10.218;2023-10-09T11:16:27;28.73;;;6.65;;
80392;SDS011;69719;45.544;10.218;2023-10-09T11:19:29;27.60;;;7.07;;
80392;SDS011;69719;45.544;10.218;2023-10-09T11:21:58;46.40;;;7.90;;
80392;SDS011;69719;45.544;10.218;2023-10-09T11:24:27;33.97;;;6.40;;
80392;SDS011;69719;45.544;10.218;2023-10-09T11:26:59;25.88;;;5.93;;
80392;SDS011;69719;45.544;10.218;2023-10-09T11:29:35;37.83;;;6.55;;
80392;SDS011;69719;45.544;10.218;2023-10-09T11:32:19;27.13;;;6.10;;
80392;SDS011;69719;45.544;10.218;2023-10-09T11:34:50;30.10;;;7.35;;
80392;SDS011;69719;45.544;10.218;2023-10-09T11:37:35;32.53;;;7.88;;
80392;SDS011;69719;45.544;10.218;2023-10-09T11:40:04;28.75;;;5.63;;
80392;SDS011;69719;45.544;10.218;2023-10-09T11:42:48;27.80;;;6.72;;
80392;SDS011;69719;45.544;10.218;2023-10-09T11:45:21;24.17;;;6.25;;
80392;SDS011;69719;45.544;10.218;2023-10-09T11:48:15;29.05;;;6.45;;
80392;SDS011;69719;45.544;10.218;2023-10-09T11:51:12;35.85;;;6.90;;
80392;SDS011;69719;45.544;10.218;2023-10-09T11:53:42;36.55;;;8.60;;
80392;SDS011;69719;45.544;10.218;2023-10-09T11:56:08;33.90;;;7.55;;
80392;SDS011;69719;45.544;10.218;2023-10-09T11:58:39;32.85;;;6.20;;
80392;SDS011;69719;45.544;10.218;2023-10-09T12:01:14;28.73;;;6.65;;
80392;SDS011;69719;45.544;10.218;2023-10-09T12:03:45;23.25;;;5.60;;
80392;SDS011;69719;45.544;10.218;2023-10-09T12:06:15;28.88;;;7.55;;
80392;SDS011;69719;45.544;10.218;2023-10-09T12:08:44;33.50;;;6.82;;
80392;SDS011;69719;45.544;10.218;2023-10-09T12:11:14;35.38;;;7.40;;
80392;SDS011;69719;45.544;10.218;2023-10-09T12:13:47;29.05;;;6.50;;
80392;SDS011;69719;45.544;10.218;2023-10-09T12:16:16;24.70;;;5.85;;
80392;SDS011;69719;45.544;10.218;2023-10-09T12:18:42;32.13;;;6.63;;
80392;SDS011;69719;45.544;10.218;2023-10-09T12:21:08;31.98;;;7.10;;
80392;SDS011;69719;45.544;10.218;2023-10-09T12:23:40;29.90;;;6.78;;
80392;SDS011;69719;45.544;10.218;2023-10-09T12:26:08;42.15;;;8.63;;
80392;SDS011;69719;45.544;10.218;2023-10-09T12:28:39;28.38;;;6.43;;
80392;SDS011;69719;45.544;10.218;2023-10-09T12:31:14;36.53;;;6.65;;
80392;SDS011;69719;45.544;10.218;2023-10-09T12:33:40;23.25;;;6.38;;
80392;SDS011;69719;45.544;10.218;2023-10-09T12:36:11;29.98;;;6.60;;
80392;SDS011;69719;45.544;10.218;2023-10-09T12:38:45;28.58;;;5.25;;
80392;SDS011;69719;45.544;10.218;2023-10-09T12:41:15;32.40;;;7.45;;
80392;SDS011;69719;45.544;10.218;2023-10-09T12:44:00;30.38;;;6.57;;
80392;SDS011;69719;45.544;10.218;2023-10-09T12:46:27;39.15;;;7.80;;
80392;SDS011;69719;45.544;10.218;2023-10-09T12:48:53;33.78;;;8.85;;
80392;SDS011;69719;45.544;10.218;2023-10-09T12:51:22;30.55;;;6.50;;
80392;SDS011;69719;45.544;10.218;2023-10-09T12:53:54;22.60;;;6.60;;
80392;SDS011;69719;45.544;10.218;2023-10-09T12:56:26;25.45;;;6.82;;
80392;SDS011;69719;45.544;10.218;2023-10-09T12:59:02;31.20;;;7.25;;
80392;SDS011;69719;45.544;10.218;2023-10-09T13:01:30;17.88;;;5.40;;
80392;SDS011;69719;45.544;10.218;2023-10-09T13:04:07;31.25;;;7.15;;
80392;SDS011;69719;45.544;10.218;2023-10-09T13:06:43;25.55;;;6.60;;
80392;SDS011;69719;45.544;10.218;2023-10-09T13:09:12;27.83;;;6.38;;
80392;SDS011;69719;45.544;10.218;2023-10-09T13:11:41;31.75;;;6.28;;
80392;SDS011;69719;45.544;10.218;2023-10-09T13:14:08;27.73;;;6.38;;
80392;SDS011;69719;45.544;10.218;2023-10-09T13:16:47;22.83;;;6.43;;
80392;SDS011;69719;45.544;10.218;2023-10-09T13:19:15;25.63;;;6.07;;
80392;SDS011;69719;45.544;10.218;2023-10-09T13:21:42;33.22;;;7.72;;
80392;SDS011;69719;45.544;10.218;2023-10-09T13:24:09;51.22;;;9.65;;
80392;SDS011;69719;45.544;10.218;2023-10-09T13:26:49;31.40;;;6.72;;
80392;SDS011;69719;45.544;10.218;2023-10-09T13:29:17;32.78;;;7.47;;
80392;SDS011;69719;45.544;10.218;2023-10-09T13:31:49;32.65;;;6.20;;
80392;SDS011;69719;45.544;10.218;2023-10-09T13:34:18;32.80;;;6.18;;
80392;SDS011;69719;45.544;10.218;2023-10-09T13:36:44;29.00;;;6.13;;
80392;SDS011;69719;45.544;10.218;2023-10-09T13:39:19;27.85;;;6.80;;
80392;SDS011;69719;45.544;10.218;2023-10-09T13:41:52;28.50;;;5.78;;
80392;SDS011;69719;45.544;10.218;2023-10-09T13:46:52;52.28;;;9.38;;
80392;SDS011;69719;45.544;10.218;2023-10-09T13:49:18;32.25;;;7.75;;
80392;SDS011;69719;45.544;10.218;2023-10-09T13:51:47;48.83;;;9.07;;
80392;SDS011;69719;45.544;10.218;2023-10-09T13:54:15;47.70;;;7.20;;
80392;SDS011;69719;45.544;10.218;2023-10-09T13:56:53;36.85;;;6.70;;
80392;SDS011;69719;45.544;10.218;2023-10-09T13:59:20;35.95;;;8.80;;
80392;SDS011;69719;45.544;10.218;2023-10-09T14:01:48;36.70;;;6.88;;
80392;SDS011;69719;45.544;10.218;2023-10-09T14:04:14;38.83;;;8.93;;
80392;SDS011;69719;45.544;10.218;2023-10-09T14:06:45;28.48;;;6.90;;
80392;SDS011;69719;45.544;10.218;2023-10-09T14:09:12;37.22;;;7.93;;
80392;SDS011;69719;45.544;10.218;2023-10-09T14:11:56;34.85;;;6.93;;
80392;SDS011;69719;45.544;10.218;2023-10-09T14:14:35;31.58;;;7.07;;
80392;SDS011;69719;45.544;10.218;2023-10-09T14:17:12;41.67;;;9.27;;
80392;SDS011;69719;45.544;10.218;2023-10-09T14:19:42;28.48;;;6.00;;
80392;SDS011;69719;45.544;10.218;2023-10-09T14:22:15;38.08;;;7.47;;
80392;SDS011;69719;45.544;10.218;2023-10-09T14:24:51;31.42;;;5.93;;
80392;SDS011;69719;45.544;10.218;2023-10-09T14:27:21;73.53;;;12.10;;
80392;SDS011;69719;45.544;10.218;2023-10-09T14:29:51;49.47;;;9.23;;
80392;SDS011;69719;45.544;10.218;2023-10-09T14:32:21;48.35;;;9.18;;
80392;SDS011;69719;45.544;10.218;2023-10-09T14:34:53;38.95;;;6.93;;
80392;SDS011;69719;45.544;10.218;2023-10-09T14:37:20;27.08;;;6.15;;
80392;SDS011;69719;45.544;10.218;2023-10-09T14:39:49;22.70;;;5.68;;
80392;SDS011;69719;45.544;10.218;2023-10-09T14:42:15;27.67;;;6.13;;
80392;SDS011;69719;45.544;10.218;2023-10-09T14:44:41;36.03;;;7.22;;
80392;SDS011;69719;45.544;10.218;2023-10-09T14:47:07;37.80;;;7.35;;
80392;SDS011;69719;45.544;10.218;2023-10-09T14:49:36;29.13;;;6.45;;
80392;SDS011;69719;45.544;10.218;2023-10-09T14:52:09;28.63;;;6.20;;
80392;SDS011;69719;45.544;10.218;2023-10-09T14:54:38;30.35;;;6.25;;
80392;SDS011;69719;45.544;10.218;2023-10-09T14:57:04;26.98;;;6.13;;
80392;SDS011;69719;45.544;10.218;2023-10-09T14:59:34;27.30;;;5.60;;
80392;SDS011;69719;45.544;10.218;2023-10-09T15:02:00;26.70;;;5.75;;
80392;SDS011;69719;45.544;10.218;2023-10-09T15:04:26;28.77;;;5.82;;
80392;SDS011;69719;45.544;10.218;2023-10-09T15:06:52;29.77;;;6.05;;
80392;SDS011;69719;45.544;10.218;2023-10-09T15:09:17;28.80;;;7.38;;
80392;SDS011;69719;45.544;10.218;2023-10-09T15:11:53;33.60;;;6.25;;
80392;SDS011;69719;45.544;10.218;2023-10-09T15:14:19;28.25;;;7.57;;
80392;SDS011;69719;45.544;10.218;2023-10-09T15:16:45;27.40;;;5.47;;
80392;SDS011;69719;45.544;10.218;2023-10-09T15:19:11;21.20;;;5.43;;
80392;SDS011;69719;45.544;10.218;2023-10-09T15:21:37;31.30;;;5.63;;
80392;SDS011;69719;45.544;10.218;2023-10-09T15:24:09;29.73;;;7.90;;
80392;SDS011;69719;45.544;10.218;2023-10-09T15:26:46;30.45;;;6.10;;
80392;SDS011;69719;45.544;10.218;2023-10-09T15:29:18;31.42;;;6.88;;
80392;SDS011;69719;45.544;10.218;2023-10-09T15:31:48;26.90;;;6.95;;
80392;SDS011;69719;45.544;10.218;2023-10-09T15:34:18;25.85;;;6.10;;
80392;SDS011;69719;45.544;10.218;2023-10-09T15:36:45;29.30;;;7.18;;
80392;SDS011;69719;45.544;10.218;2023-10-09T15:39:14;33.00;;;6.55;;
80392;SDS011;69719;45.544;10.218;2023-10-09T15:41:47;37.60;;;8.23;;